»·PEaware :: N12PL KVNY-KSEZ

N12PL :: KVNY-KSEZ

FLIGHT INFORMATION

Flight Status: Arrived
Operator: Privately registered:
United States
More flights under this callsign
Pilot: Ethan S. (29221)
Aircraft: CANADAIR CL-600 CHALLENGER
(CL60)
More flights by this aircraft type
Origin: KVNY Van Nuys
United States
Destination: KSEZ Sedona
United States
More flights between these airports :: More routes between these airports
Route: HARYS4 HEC J6 DRK
File this flight plan on PilotEdge
Remarks:
Altitude:
(Current/Filed)
39,000ft
Speed:
(Current/Filed)
465kts
Departed: 10-Nov-23 12:11 PM
Arrived: 10-Nov-23 01:04 PM
Distance/Time
Traveled:
333nm/0:53
Distance/Time
To Go:
Arrived

Flight Plot

Page will automatically refresh every two minutes.

Flight plan parsing failed; only flown route is shown


Map Options




Map Legend


Flown Route
Filed Route
Departure Airport
Arrival Airport
Navaid (VOR, NDB)
Fix

Horizontal Profiles

Position Reports

Time Latitude Longitude Heading Altitude Ground
Speed
10-Nov-23 11:42 34.202830 -118.491740 0 767ft 0kts
10-Nov-23 11:43 34.202830 -118.491740 0 767ft 0kts
10-Nov-23 11:44 34.202830 -118.491740 0 767ft 0kts
10-Nov-23 11:45 34.202830 -118.491740 0 767ft 0kts
10-Nov-23 11:46 34.202830 -118.491740 0 767ft 0kts
10-Nov-23 11:47 34.202830 -118.491740 0 767ft 0kts
10-Nov-23 11:48 34.202830 -118.491740 0 767ft 0kts
10-Nov-23 11:49 34.202830 -118.491740 0 767ft 0kts
10-Nov-23 11:50 34.202830 -118.491740 0 767ft 0kts
10-Nov-23 11:51 34.202830 -118.491740 0 767ft 0kts
10-Nov-23 11:52 34.202830 -118.491740 0 767ft 0kts
10-Nov-23 11:53 34.202830 -118.491740 0 767ft 0kts
10-Nov-23 11:54 34.202830 -118.491740 0 767ft 0kts
10-Nov-23 11:55 34.202830 -118.491740 0 767ft 0kts
10-Nov-23 11:56 34.202830 -118.491740 0 767ft 0kts
10-Nov-23 11:57 34.202830 -118.491740 0 767ft 0kts
10-Nov-23 11:58 34.202830 -118.491740 0 767ft 0kts
10-Nov-23 11:59 34.202830 -118.491740 0 767ft 0kts
10-Nov-23 12:00 34.202830 -118.491740 0 767ft 0kts
10-Nov-23 12:01 34.202830 -118.491740 0 767ft 0kts
10-Nov-23 12:02 34.202830 -118.491740 0 767ft 0kts
10-Nov-23 12:03 34.202830 -118.491740 0 767ft 0kts
10-Nov-23 12:04 34.202830 -118.491740 0 767ft 0kts
10-Nov-23 12:05 34.204040 -118.491001 354 771ft 11kts
10-Nov-23 12:06 34.209747 -118.491532 355 785ft 26kts
10-Nov-23 12:07 34.215271 -118.492103 349 800ft 20kts
10-Nov-23 12:08 34.218464 -118.492324 12 809ft 6kts
10-Nov-23 12:09 34.218758 -118.491856 85 810ft 6kts
10-Nov-23 12:10 34.196800 -118.489186 176 1524ft 205kts
10-Nov-23 12:11 34.147832 -118.462866 93 3782ft 214kts
10-Nov-23 12:12 34.194346 -118.440765 351 6160ft 216kts
10-Nov-23 12:13 34.265629 -118.451925 351 9096ft 282kts
10-Nov-23 12:14 34.338404 -118.428678 29 10726ft 279kts
10-Nov-23 12:15 34.411074 -118.372740 30 15191ft 339kts
10-Nov-23 12:16 34.491197 -118.305163 36 19543ft 367kts
10-Nov-23 12:17 34.572572 -118.223082 36 23046ft 395kts
10-Nov-23 12:18 34.657193 -118.132112 53 25960ft 428kts
10-Nov-23 12:19 34.689156 -117.988448 77 28576ft 453kts
10-Nov-23 12:20 34.700567 -117.833354 86 30707ft 470kts
10-Nov-23 12:21 34.708152 -117.674333 87 32876ft 475kts
10-Nov-23 12:22 34.714258 -117.513625 87 34854ft 477kts
10-Nov-23 12:23 34.726827 -117.354075 83 36671ft 476kts
10-Nov-23 12:24 34.739993 -117.193911 84 38057ft 475kts
10-Nov-23 12:25 34.753122 -117.031049 84 38250ft 498kts
10-Nov-23 12:26 34.766684 -116.859965 84 38195ft 516kts
10-Nov-23 12:27 34.780236 -116.686124 84 38211ft 516kts
10-Nov-23 12:28 34.793401 -116.512753 84 38141ft 515kts
10-Nov-23 12:29 34.796297 -116.338306 91 38115ft 516kts
10-Nov-23 12:30 34.794651 -116.163759 90 38124ft 517kts
10-Nov-23 12:31 34.792800 -115.989471 91 38110ft 518kts
10-Nov-23 12:32 34.790686 -115.814722 91 38129ft 517kts
10-Nov-23 12:33 34.788327 -115.640034 91 38055ft 518kts
10-Nov-23 12:34 34.785745 -115.464999 91 38048ft 517kts
10-Nov-23 12:35 34.782865 -115.289601 91 38025ft 518kts
10-Nov-23 12:36 34.779757 -115.114823 91 38034ft 519kts
10-Nov-23 12:37 34.776375 -114.939442 91 38032ft 519kts
10-Nov-23 12:38 34.772783 -114.764851 91 38091ft 519kts
10-Nov-23 12:39 34.768909 -114.589507 91 38083ft 518kts
10-Nov-23 12:40 34.764800 -114.415032 90 38088ft 518kts
10-Nov-23 12:41 34.760479 -114.240327 91 38081ft 517kts
10-Nov-23 12:42 34.755875 -114.065518 91 38133ft 518kts
10-Nov-23 12:43 34.751060 -113.890541 91 36616ft 518kts
10-Nov-23 12:44 34.746092 -113.720510 91 34349ft 493kts
10-Nov-23 12:45 34.741157 -113.557610 91 31989ft 476kts
10-Nov-23 12:46 34.736009 -113.398925 91 29576ft 465kts
10-Nov-23 12:47 34.730940 -113.245871 92 27327ft 446kts
10-Nov-23 12:48 34.725889 -113.098326 92 25094ft 429kts
10-Nov-23 12:49 34.720790 -112.956704 92 22864ft 412kts
10-Nov-23 12:50 34.715763 -112.820793 92 20710ft 396kts
10-Nov-23 12:51 34.710824 -112.690130 91 18659ft 379kts
10-Nov-23 12:52 34.706083 -112.564628 88 16651ft 365kts
10-Nov-23 12:53 34.725543 -112.447328 75 14334ft 347kts
10-Nov-23 12:54 34.746541 -112.336047 76 12122ft 325kts
10-Nov-23 12:55 34.765672 -112.234447 76 11224ft 296kts
10-Nov-23 12:56 34.778662 -112.142682 86 10878ft 269kts
10-Nov-23 12:57 34.780864 -112.057179 87 9506ft 234kts
10-Nov-23 12:58 34.782780 -111.982763 86 8309ft 209kts
10-Nov-23 12:59 34.784433 -111.920115 86 7287ft 149kts
10-Nov-23 13:00 34.785780 -111.871501 83 6488ft 141kts
10-Nov-23 13:01 34.810467 -111.836359 44 5726ft 139kts
10-Nov-23 13:02 34.836297 -111.803902 47 5002ft 131kts
10-Nov-23 13:03 34.850336 -111.787107 312 4797ft 3kts

Navigation Log

Ident Type
Flight plan parsing failed, navigation log unavailable